sensor_id;sensor_type;location;lat;lon;timestamp;pressure;altitude;pressure_sealevel;temperature;humidity
61136;BME280;47021;51.340;12.432;2023-01-25T00:00:14;102257.25;;;5.48;68.95
61136;BME280;47021;51.340;12.432;2023-01-25T00:02:51;102247.22;;;5.98;67.93
61136;BME280;47021;51.340;12.432;2023-01-25T00:05:17;102243.84;;;5.96;67.28
61136;BME280;47021;51.340;12.432;2023-01-25T00:10:19;102238.38;;;6.05;67.54
61136;BME280;47021;51.340;12.432;2023-01-25T00:12:46;102243.09;;;5.61;68.45
61136;BME280;47021;51.340;12.432;2023-01-25T00:15:18;102243.13;;;5.29;69.53
61136;BME280;47021;51.340;12.432;2023-01-25T00:17:44;102233.88;;;5.81;67.98
61136;BME280;47021;51.340;12.432;2023-01-25T00:20:09;102230.97;;;5.93;67.93
61136;BME280;47021;51.340;12.432;2023-01-25T00:22:36;102248.53;;;6.11;67.16
61136;BME280;47021;51.340;12.432;2023-01-25T00:25:02;102238.53;;;6.26;66.49
61136;BME280;47021;51.340;12.432;2023-01-25T00:27:29;102234.72;;;5.81;67.54
61136;BME280;47021;51.340;12.432;2023-01-25T00:29:55;102241.97;;;5.70;68.09
61136;BME280;47021;51.340;12.432;2023-01-25T00:34:46;102235.66;;;5.79;68.55
61136;BME280;47021;51.340;12.432;2023-01-25T00:37:23;102232.00;;;5.56;68.46
61136;BME280;47021;51.340;12.432;2023-01-25T00:39:55;102235.03;;;5.09;70.18
61136;BME280;47021;51.340;12.432;2023-01-25T00:42:21;102230.97;;;5.62;69.02
61136;BME280;47021;51.340;12.432;2023-01-25T00:44:46;102233.94;;;5.78;68.60
61136;BME280;47021;51.340;12.432;2023-01-25T00:47:14;102230.03;;;5.94;67.93
61136;BME280;47021;51.340;12.432;2023-01-25T00:49:41;102230.97;;;5.93;68.25
61136;BME280;47021;51.340;12.432;2023-01-25T00:52:06;102234.94;;;6.03;67.54
61136;BME280;47021;51.340;12.432;2023-01-25T00:57:16;102235.50;;;6.14;67.28
61136;BME280;47021;51.340;12.432;2023-01-25T00:59:41;102232.50;;;5.98;67.33
61136;BME280;47021;51.340;12.432;2023-01-25T01:03:34;102238.47;;;5.10;70.44
61136;BME280;47021;51.340;12.432;2023-01-25T01:06:02;102230.94;;;5.33;69.28
61136;BME280;47021;51.340;12.432;2023-01-25T01:08:27;102236.88;;;5.36;69.18
61136;BME280;47021;51.340;12.432;2023-01-25T01:11:04;102229.03;;;5.39;69.66
61136;BME280;47021;51.340;12.432;2023-01-25T01:13:36;102224.78;;;5.05;69.76
61136;BME280;47021;51.340;12.432;2023-01-25T01:16:02;102230.88;;;5.34;69.76
61136;BME280;47021;51.340;12.432;2023-01-25T01:18:40;102225.56;;;5.69;68.62
61136;BME280;47021;51.340;12.432;2023-01-25T01:21:12;102226.56;;;5.64;68.61
61136;BME280;47021;51.340;12.432;2023-01-25T01:23:37;102219.81;;;5.89;68.18
61136;BME280;47021;51.340;12.432;2023-01-25T01:26:04;102218.50;;;5.45;68.76
61136;BME280;47021;51.340;12.432;2023-01-25T01:28:35;102219.56;;;5.38;69.87
61136;BME280;47021;51.340;12.432;2023-01-25T01:31:06;102217.53;;;5.79;68.38
61136;BME280;47021;51.340;12.432;2023-01-25T01:33:33;102210.75;;;5.45;69.04
61136;BME280;47021;51.340;12.432;2023-01-25T01:38:45;102208.75;;;5.83;68.24
61136;BME280;47021;51.340;12.432;2023-01-25T01:41:10;102198.84;;;5.97;67.57
61136;BME280;47021;51.340;12.432;2023-01-25T01:43:37;102195.28;;;5.42;69.26
61136;BME280;47021;51.340;12.432;2023-01-25T01:46:26;102190.63;;;4.92;70.03
61136;BME280;47021;51.340;12.432;2023-01-25T01:49:10;102187.59;;;5.09;69.55
61136;BME280;47021;51.340;12.432;2023-01-25T01:56:54;102166.31;;;4.97;70.73
61136;BME280;47021;51.340;12.432;2023-01-25T01:59:25;102159.34;;;5.30;69.76
61136;BME280;47021;51.340;12.432;2023-01-25T02:01:52;102145.44;;;5.63;68.68
61136;BME280;47021;51.340;12.432;2023-01-25T02:04:18;102150.28;;;5.74;67.90
61136;BME280;47021;51.340;12.432;2023-01-25T02:06:52;102147.34;;;5.86;67.40
61136;BME280;47021;51.340;12.432;2023-01-25T02:09:20;102150.72;;;5.88;68.19
61136;BME280;47021;51.340;12.432;2023-01-25T02:11:46;102144.88;;;5.82;68.21
61136;BME280;47021;51.340;12.432;2023-01-25T02:14:13;102144.94;;;5.79;67.90
61136;BME280;47021;51.340;12.432;2023-01-25T02:16:40;102135.31;;;6.10;67.58
61136;BME280;47021;51.340;12.432;2023-01-25T02:19:16;102133.94;;;6.00;67.45
61136;BME280;47021;51.340;12.432;2023-01-25T02:21:46;102126.59;;;6.12;67.19
61136;BME280;47021;51.340;12.432;2023-01-25T02:26:56;102122.78;;;5.98;67.99
61136;BME280;47021;51.340;12.432;2023-01-25T02:29:25;102115.75;;;6.01;67.45
61136;BME280;47021;51.340;12.432;2023-01-25T02:32:01;102119.91;;;6.05;68.00
61136;BME280;47021;51.340;12.432;2023-01-25T02:34:27;102118.94;;;6.09;67.04
61136;BME280;47021;51.340;12.432;2023-01-25T02:36:52;102120.16;;;6.24;66.99
61136;BME280;47021;51.340;12.432;2023-01-25T02:39:31;102115.19;;;6.18;66.93
61136;BME280;47021;51.340;12.432;2023-01-25T02:42:10;102121.56;;;6.08;67.60
61136;BME280;47021;51.340;12.432;2023-01-25T02:44:36;102122.56;;;6.04;66.87
61136;BME280;47021;51.340;12.432;2023-01-25T02:47:08;102125.66;;;6.15;66.60
61136;BME280;47021;51.340;12.432;2023-01-25T02:49:35;102117.78;;;5.92;66.97
61136;BME280;47021;51.340;12.432;2023-01-25T02:52:01;102113.63;;;6.12;67.03
61136;BME280;47021;51.340;12.432;2023-01-25T02:54:27;102113.75;;;5.82;67.58
61136;BME280;47021;51.340;12.432;2023-01-25T02:56:58;102119.84;;;6.08;67.12
61136;BME280;47021;51.340;12.432;2023-01-25T02:59:24;102110.66;;;5.70;67.82
61136;BME280;47021;51.340;12.432;2023-01-25T03:01:49;102107.88;;;5.77;67.99
61136;BME280;47021;51.340;12.432;2023-01-25T03:04:16;102102.69;;;5.77;67.81
61136;BME280;47021;51.340;12.432;2023-01-25T03:06:42;102106.06;;;6.06;66.95
61136;BME280;47021;51.340;12.432;2023-01-25T03:09:15;102098.38;;;6.03;66.97
61136;BME280;47021;51.340;12.432;2023-01-25T03:11:40;102100.03;;;6.06;66.94
61136;BME280;47021;51.340;12.432;2023-01-25T03:16:50;102103.97;;;6.17;66.99
61136;BME280;47021;51.340;12.432;2023-01-25T03:19:17;102095.00;;;6.27;66.99
61136;BME280;47021;51.340;12.432;2023-01-25T03:21:42;102094.53;;;6.15;66.85
61136;BME280;47021;51.340;12.432;2023-01-25T03:24:08;102095.16;;;5.97;66.52
61136;BME280;47021;51.340;12.432;2023-01-25T03:29:03;102089.56;;;5.81;68.22
61136;BME280;47021;51.340;12.432;2023-01-25T03:31:28;102080.00;;;6.11;67.03
61136;BME280;47021;51.340;12.432;2023-01-25T03:34:00;102088.63;;;5.84;66.98
61136;BME280;47021;51.340;12.432;2023-01-25T03:36:33;102083.84;;;5.71;67.40
61136;BME280;47021;51.340;12.432;2023-01-25T03:39:13;102073.97;;;5.84;66.83
61136;BME280;47021;51.340;12.432;2023-01-25T03:41:39;102083.63;;;5.78;67.80
61136;BME280;47021;51.340;12.432;2023-01-25T03:44:10;102075.22;;;5.43;68.22
61136;BME280;47021;51.340;12.432;2023-01-25T03:46:48;102085.97;;;5.31;68.95
61136;BME280;47021;51.340;12.432;2023-01-25T03:49:15;102086.63;;;5.65;67.75
61136;BME280;47021;51.340;12.432;2023-01-25T03:54:21;102075.34;;;5.66;67.89
61136;BME280;47021;51.340;12.432;2023-01-25T03:56:46;102071.09;;;5.92;67.01
61136;BME280;47021;51.340;12.432;2023-01-25T03:59:14;102073.78;;;6.15;66.52
61136;BME280;47021;51.340;12.432;2023-01-25T04:01:39;102077.59;;;6.05;66.47
61136;BME280;47021;51.340;12.432;2023-01-25T04:04:18;102075.78;;;5.53;67.89
61136;BME280;47021;51.340;12.432;2023-01-25T04:06:50;102078.06;;;5.34;68.64
61136;BME280;47021;51.340;12.432;2023-01-25T04:09:16;102072.38;;;5.79;67.95
61136;BME280;47021;51.340;12.432;2023-01-25T04:11:41;102080.22;;;5.77;67.63
61136;BME280;47021;51.340;12.432;2023-01-25T04:14:07;102067.34;;;6.02;66.60
61136;BME280;47021;51.340;12.432;2023-01-25T04:16:33;102072.31;;;6.08;66.36
61136;BME280;47021;51.340;12.432;2023-01-25T04:18:59;102067.50;;;6.22;66.32
61136;BME280;47021;51.340;12.432;2023-01-25T04:21:27;102071.53;;;6.30;66.19
61136;BME280;47021;51.340;12.432;2023-01-25T04:26:35;102059.09;;;6.40;65.42
61136;BME280;47021;51.340;12.432;2023-01-25T04:29:03;102052.81;;;5.96;66.53
61136;BME280;47021;51.340;12.432;2023-01-25T04:31:30;102058.59;;;5.50;67.78
61136;BME280;47021;51.340;12.432;2023-01-25T04:33:55;102051.72;;;5.49;67.90
61136;BME280;47021;51.340;12.432;2023-01-25T04:36:20;102047.75;;;5.93;66.93
61136;BME280;47021;51.340;12.432;2023-01-25T04:38:47;102050.09;;;6.25;66.29
61136;BME280;47021;51.340;12.432;2023-01-25T04:41:14;102049.41;;;6.20;65.84
61136;BME280;47021;51.340;12.432;2023-01-25T04:43:46;102054.38;;;6.26;65.96
61136;BME280;47021;51.340;12.432;2023-01-25T04:46:11;102041.50;;;6.23;65.54
61136;BME280;47021;51.340;12.432;2023-01-25T04:48:39;102049.00;;;6.32;65.74
61136;BME280;47021;51.340;12.432;2023-01-25T04:51:05;102037.66;;;6.35;65.54
61136;BME280;47021;51.340;12.432;2023-01-25T04:53:30;102043.13;;;6.27;65.61
61136;BME280;47021;51.340;12.432;2023-01-25T04:55:57;102038.72;;;6.29;65.34
61136;BME280;47021;51.340;12.432;2023-01-25T04:58:23;102036.91;;;6.07;66.26
61136;BME280;47021;51.340;12.432;2023-01-25T05:00:50;102042.44;;;5.96;66.62
61136;BME280;47021;51.340;12.432;2023-01-25T05:03:16;102040.13;;;5.89;66.98
61136;BME280;47021;51.340;12.432;2023-01-25T05:05:47;102043.91;;;5.51;68.00
61136;BME280;47021;51.340;12.432;2023-01-25T05:08:13;102037.25;;;5.70;67.63
61136;BME280;47021;51.340;12.432;2023-01-25T05:10:39;102025.69;;;6.06;66.68
61136;BME280;47021;51.340;12.432;2023-01-25T05:13:11;102028.13;;;5.85;66.76
61136;BME280;47021;51.340;12.432;2023-01-25T05:15:38;102031.94;;;5.73;67.65
61136;BME280;47021;51.340;12.432;2023-01-25T05:18:03;102026.13;;;5.39;68.12
61136;BME280;47021;51.340;12.432;2023-01-25T05:20:29;102029.41;;;5.18;68.60
61136;BME280;47021;51.340;12.432;2023-01-25T05:23:03;102035.25;;;5.52;68.07
61136;BME280;47021;51.340;12.432;2023-01-25T05:25:29;102027.19;;;5.87;68.00
61136;BME280;47021;51.340;12.432;2023-01-25T05:27:54;102025.75;;;6.05;67.18
61136;BME280;47021;51.340;12.432;2023-01-25T05:30:20;102027.03;;;6.18;66.48
61136;BME280;47021;51.340;12.432;2023-01-25T05:32:47;102031.44;;;5.90;66.94
61136;BME280;47021;51.340;12.432;2023-01-25T05:35:18;102024.66;;;6.12;66.59
61136;BME280;47021;51.340;12.432;2023-01-25T05:37:44;102023.16;;;6.05;66.64
61136;BME280;47021;51.340;12.432;2023-01-25T05:40:10;102016.09;;;6.08;66.77
61136;BME280;47021;51.340;12.432;2023-01-25T05:42:35;102020.97;;;5.93;66.70
61136;BME280;47021;51.340;12.432;2023-01-25T05:45:08;102027.03;;;6.18;66.09
61136;BME280;47021;51.340;12.432;2023-01-25T05:47:35;102022.69;;;6.18;65.98
61136;BME280;47021;51.340;12.432;2023-01-25T05:50:03;102019.00;;;6.24;66.15
61136;BME280;47021;51.340;12.432;2023-01-25T05:52:29;102019.28;;;5.38;67.61
61136;BME280;47021;51.340;12.432;2023-01-25T05:54:59;102015.13;;;5.32;68.99
61136;BME280;47021;51.340;12.432;2023-01-25T05:57:26;102019.34;;;5.62;67.38
61136;BME280;47021;51.340;12.432;2023-01-25T05:59:55;102026.13;;;5.40;68.56
61136;BME280;47021;51.340;12.432;2023-01-25T06:02:21;102019.41;;;5.06;69.18
61136;BME280;47021;51.340;12.432;2023-01-25T06:04:48;102017.56;;;5.37;68.49
61136;BME280;47021;51.340;12.432;2023-01-25T06:07:13;102020.38;;;5.57;67.98
61136;BME280;47021;51.340;12.432;2023-01-25T06:09:38;102021.72;;;5.42;67.77
61136;BME280;47021;51.340;12.432;2023-01-25T06:12:05;102013.16;;;5.40;68.51
61136;BME280;47021;51.340;12.432;2023-01-25T06:14:31;102018.06;;;5.22;69.43
61136;BME280;47021;51.340;12.432;2023-01-25T06:16:58;102009.59;;;5.70;67.96
61136;BME280;47021;51.340;12.432;2023-01-25T06:19:24;102019.50;;;5.30;69.05
61136;BME280;47021;51.340;12.432;2023-01-25T06:21:49;102010.28;;;5.49;68.49
61136;BME280;47021;51.340;12.432;2023-01-25T06:24:15;102010.94;;;5.56;68.40
61136;BME280;47021;51.340;12.432;2023-01-25T06:26:48;102010.59;;;5.39;68.66
61136;BME280;47021;51.340;12.432;2023-01-25T06:29:13;102008.41;;;5.27;69.12
61136;BME280;47021;51.340;12.432;2023-01-25T06:31:40;102006.53;;;5.04;69.14
61136;BME280;47021;51.340;12.432;2023-01-25T06:36:50;102014.59;;;5.49;68.86
61136;BME280;47021;51.340;12.432;2023-01-25T06:39:25;102009.91;;;5.60;68.47
61136;BME280;47021;51.340;12.432;2023-01-25T06:41:51;102002.03;;;5.91;67.83
61136;BME280;47021;51.340;12.432;2023-01-25T06:44:17;102006.91;;;6.00;67.20
61136;BME280;47021;51.340;12.432;2023-01-25T06:46:44;102005.09;;;6.02;67.32
61136;BME280;47021;51.340;12.432;2023-01-25T06:49:10;102003.41;;;6.01;67.40
61136;BME280;47021;51.340;12.432;2023-01-25T06:51:43;102007.22;;;5.91;67.36
61136;BME280;47021;51.340;12.432;2023-01-25T06:54:09;101996.72;;;5.94;67.30
61136;BME280;47021;51.340;12.432;2023-01-25T06:56:35;101994.56;;;6.06;67.01
61136;BME280;47021;51.340;12.432;2023-01-25T06:59:12;101996.31;;;6.06;66.75
61136;BME280;47021;51.340;12.432;2023-01-25T07:01:38;101997.97;;;6.08;66.95
61136;BME280;47021;51.340;12.432;2023-01-25T07:04:03;101992.06;;;6.03;66.88
61136;BME280;47021;51.340;12.432;2023-01-25T07:06:41;101990.44;;;6.01;67.00
61136;BME280;47021;51.340;12.432;2023-01-25T07:11:50;101987.00;;;5.22;67.91
61136;BME280;47021;51.340;12.432;2023-01-25T07:14:18;101980.13;;;5.47;67.95
61136;BME280;47021;51.340;12.432;2023-01-25T07:16:49;101981.16;;;5.41;67.71
61136;BME280;47021;51.340;12.432;2023-01-25T07:19:30;101973.81;;;5.80;67.09
61136;BME280;47021;51.340;12.432;2023-01-25T07:21:56;101970.34;;;5.81;66.56
61136;BME280;47021;51.340;12.432;2023-01-25T07:24:23;101970.94;;;5.91;66.44
61136;BME280;47021;51.340;12.432;2023-01-25T07:26:48;101973.34;;;5.95;66.32
61136;BME280;47021;51.340;12.432;2023-01-25T07:29:16;101976.25;;;5.86;66.78
61136;BME280;47021;51.340;12.432;2023-01-25T07:31:46;101967.25;;;5.96;66.06
61136;BME280;47021;51.340;12.432;2023-01-25T07:34:13;101955.84;;;6.02;66.15
61136;BME280;47021;51.340;12.432;2023-01-25T07:36:39;101957.91;;;5.92;66.35
61136;BME280;47021;51.340;12.432;2023-01-25T07:39:05;101955.59;;;5.83;66.79
61136;BME280;47021;51.340;12.432;2023-01-25T07:41:32;101951.72;;;5.70;67.43
61136;BME280;47021;51.340;12.432;2023-01-25T07:43:58;101952.88;;;5.88;66.99
61136;BME280;47021;51.340;12.432;2023-01-25T07:49:15;101953.94;;;6.07;66.61
61136;BME280;47021;51.340;12.432;2023-01-25T07:51:41;101949.44;;;6.12;66.16
61136;BME280;47021;51.340;12.432;2023-01-25T07:54:09;101949.13;;;6.21;66.10
61136;BME280;47021;51.340;12.432;2023-01-25T07:56:35;101942.81;;;6.28;65.66
61136;BME280;47021;51.340;12.432;2023-01-25T07:59:00;101941.44;;;6.18;65.60
61136;BME280;47021;51.340;12.432;2023-01-25T08:01:32;101928.06;;;6.28;65.48
61136;BME280;47021;51.340;12.432;2023-01-25T08:03:58;101927.69;;;6.16;65.88
61136;BME280;47021;51.340;12.432;2023-01-25T08:06:32;101929.31;;;5.94;66.59
61136;BME280;47021;51.340;12.432;2023-01-25T08:09:09;101932.44;;;5.79;66.48
61136;BME280;47021;51.340;12.432;2023-01-25T08:11:36;101930.59;;;6.07;65.84
61136;BME280;47021;51.340;12.432;2023-01-25T08:14:14;101923.66;;;6.30;65.23
61136;BME280;47021;51.340;12.432;2023-01-25T08:22:07;101928.69;;;6.35;65.07
61136;BME280;47021;51.340;12.432;2023-01-25T08:24:32;101930.66;;;6.28;65.07
61136;BME280;47021;51.340;12.432;2023-01-25T08:27:05;101931.06;;;6.41;64.57
61136;BME280;47021;51.340;12.432;2023-01-25T08:32:14;101932.72;;;6.20;66.08
61136;BME280;47021;51.340;12.432;2023-01-25T08:34:46;101923.31;;;6.39;65.48
61136;BME280;47021;51.340;12.432;2023-01-25T08:37:11;101926.44;;;6.26;65.76
61136;BME280;47021;51.340;12.432;2023-01-25T08:42:24;101921.72;;;6.37;65.63
61136;BME280;47021;51.340;12.432;2023-01-25T08:44:50;101923.50;;;6.35;65.11
61136;BME280;47021;51.340;12.432;2023-01-25T08:47:16;101922.78;;;6.55;64.73
61136;BME280;47021;51.340;12.432;2023-01-25T08:49:41;101924.00;;;6.45;64.99
61136;BME280;47021;51.340;12.432;2023-01-25T08:52:21;101927.00;;;6.34;64.88
61136;BME280;47021;51.340;12.432;2023-01-25T08:54:52;101918.59;;;6.04;65.34
61136;BME280;47021;51.340;12.432;2023-01-25T08:57:17;101909.81;;;6.31;65.26
61136;BME280;47021;51.340;12.432;2023-01-25T08:59:43;101904.44;;;6.36;65.13
61136;BME280;47021;51.340;12.432;2023-01-25T09:02:09;101907.97;;;5.87;66.11
61136;BME280;47021;51.340;12.432;2023-01-25T09:04:35;101900.19;;;6.12;65.99
61136;BME280;47021;51.340;12.432;2023-01-25T09:07:00;101901.75;;;6.39;65.07
61136;BME280;47021;51.340;12.432;2023-01-25T09:09:26;101907.28;;;6.07;65.71
61136;BME280;47021;51.340;12.432;2023-01-25T09:11:53;101896.31;;;6.45;65.21
61136;BME280;47021;51.340;12.432;2023-01-25T09:14:21;101893.66;;;6.47;64.92
61136;BME280;47021;51.340;12.432;2023-01-25T09:16:52;101891.56;;;6.56;64.64
61136;BME280;47021;51.340;12.432;2023-01-25T09:19:17;101900.28;;;6.32;65.12
61136;BME280;47021;51.340;12.432;2023-01-25T09:21:55;101898.56;;;6.54;64.95
61136;BME280;47021;51.340;12.432;2023-01-25T09:24:26;101888.94;;;6.58;64.30
61136;BME280;47021;51.340;12.432;2023-01-25T09:26:59;101889.97;;;6.07;65.83
61136;BME280;47021;51.340;12.432;2023-01-25T09:29:24;101878.97;;;6.24;65.92
61136;BME280;47021;51.340;12.432;2023-01-25T09:31:50;101887.66;;;6.46;65.02
61136;BME280;47021;51.340;12.432;2023-01-25T09:34:16;101887.06;;;6.61;64.45
61136;BME280;47021;51.340;12.432;2023-01-25T09:39:25;101886.16;;;6.62;64.46
61136;BME280;47021;51.340;12.432;2023-01-25T09:44:42;101882.66;;;6.63;64.43
61136;BME280;47021;51.340;12.432;2023-01-25T09:54:47;101863.19;;;6.30;65.42
61136;BME280;47021;51.340;12.432;2023-01-25T09:59:41;101867.16;;;6.62;64.33
61136;BME280;47021;51.340;12.432;2023-01-25T10:04:51;101860.25;;;6.39;65.04
61136;BME280;47021;51.340;12.432;2023-01-25T10:10:02;101856.28;;;6.74;64.07
61136;BME280;47021;51.340;12.432;2023-01-25T10:12:33;101859.50;;;6.80;63.85
61136;BME280;47021;51.340;12.432;2023-01-25T10:15:01;101853.44;;;6.36;64.86
61136;BME280;47021;51.340;12.432;2023-01-25T10:17:38;101850.00;;;6.58;64.19
61136;BME280;47021;51.340;12.432;2023-01-25T10:22:50;101836.72;;;6.65;63.85
61136;BME280;47021;51.340;12.432;2023-01-25T10:33:10;101819.44;;;6.43;64.40
61136;BME280;47021;51.340;12.432;2023-01-25T10:35:36;101822.66;;;6.71;63.19
61136;BME280;47021;51.340;12.432;2023-01-25T10:38:27;101825.16;;;6.74;62.95
61136;BME280;47021;51.340;12.432;2023-01-25T10:40:51;101814.47;;;6.60;63.08
61136;BME280;47021;51.340;12.432;2023-01-25T10:43:21;101810.28;;;6.77;62.21
61136;BME280;47021;51.340;12.432;2023-01-25T10:45:53;101807.13;;;6.26;62.72
61136;BME280;47021;51.340;12.432;2023-01-25T10:50:45;101796.53;;;6.54;62.54
61136;BME280;47021;51.340;12.432;2023-01-25T10:53:22;101800.13;;;6.06;63.96
61136;BME280;47021;51.340;12.432;2023-01-25T10:58:42;101791.78;;;6.43;62.13
61136;BME280;47021;51.340;12.432;2023-01-25T11:01:23;101790.66;;;6.70;61.79
61136;BME280;47021;51.340;12.432;2023-01-25T11:03:49;101788.47;;;6.81;61.71
61136;BME280;47021;51.340;12.432;2023-01-25T11:06:14;101784.34;;;6.97;61.92
61136;BME280;47021;51.340;12.432;2023-01-25T11:08:52;101780.16;;;6.73;62.63
61136;BME280;47021;51.340;12.432;2023-01-25T11:11:24;101775.94;;;6.71;62.47
61136;BME280;47021;51.340;12.432;2023-01-25T11:13:52;101767.28;;;6.92;62.22
61136;BME280;47021;51.340;12.432;2023-01-25T11:18:57;101764.88;;;7.07;61.84
61136;BME280;47021;51.340;12.432;2023-01-25T11:21:23;101755.13;;;6.92;62.06
61136;BME280;47021;51.340;12.432;2023-01-25T11:29:17;101742.13;;;6.92;62.29
61136;BME280;47021;51.340;12.432;2023-01-25T11:31:49;101742.41;;;7.06;61.68
61136;BME280;47021;51.340;12.432;2023-01-25T11:34:17;101738.78;;;6.90;62.23
61136;BME280;47021;51.340;12.432;2023-01-25T11:57:58;101691.16;;;6.91;61.73
61136;BME280;47021;51.340;12.432;2023-01-25T12:00:34;101684.78;;;6.78;61.60
61136;BME280;47021;51.340;12.432;2023-01-25T12:03:07;101675.41;;;7.15;60.65
61136;BME280;47021;51.340;12.432;2023-01-25T12:08:26;101673.56;;;6.78;61.43
61136;BME280;47021;51.340;12.432;2023-01-25T12:34:35;101628.84;;;6.91;61.64
61136;BME280;47021;51.340;12.432;2023-01-25T12:37:10;101623.47;;;6.94;61.55
61136;BME280;47021;51.340;12.432;2023-01-25T12:45:19;101610.78;;;6.88;61.89
61136;BME280;47021;51.340;12.432;2023-01-25T12:50:39;101602.59;;;7.16;61.01
61136;BME280;47021;51.340;12.432;2023-01-25T12:55:55;101591.63;;;6.91;61.11
61136;BME280;47021;51.340;12.432;2023-01-25T13:01:18;101577.13;;;6.47;62.08
61136;BME280;47021;51.340;12.432;2023-01-25T13:14:39;101560.56;;;7.08;60.64
61136;BME280;47021;51.340;12.432;2023-01-25T13:16:50;101548.19;;;7.13;60.46
61136;BME280;47021;51.340;12.432;2023-01-25T13:19:37;101548.97;;;7.15;60.17
61136;BME280;47021;51.340;12.432;2023-01-25T13:22:03;101538.00;;;6.90;60.44
61136;BME280;47021;51.340;12.432;2023-01-25T13:27:26;101535.69;;;6.84;61.34
61136;BME280;47021;51.340;12.432;2023-01-25T13:29:57;101536.13;;;6.93;61.59
61136;BME280;47021;51.340;12.432;2023-01-25T13:34:57;101525.72;;;6.75;61.63
61136;BME280;47021;51.340;12.432;2023-01-25T13:37:32;101524.34;;;6.48;62.05
61136;BME280;47021;51.340;12.432;2023-01-25T13:42:34;101522.38;;;6.91;61.25
61136;BME280;47021;51.340;12.432;2023-01-25T13:45:16;101504.22;;;6.91;61.33
61136;BME280;47021;51.340;12.432;2023-01-25T13:47:58;101496.00;;;6.82;61.50
61136;BME280;47021;51.340;12.432;2023-01-25T13:50:25;101502.72;;;7.04;61.09
61136;BME280;47021;51.340;12.432;2023-01-25T13:53:02;101499.03;;;6.91;61.28
61136;BME280;47021;51.340;12.432;2023-01-25T14:03:26;101478.72;;;6.81;61.66
61136;BME280;47021;51.340;12.432;2023-01-25T14:06:06;101485.31;;;6.69;61.67
61136;BME280;47021;51.340;12.432;2023-01-25T14:11:34;101484.63;;;7.03;61.11
61136;BME280;47021;51.340;12.432;2023-01-25T14:14:00;101485.63;;;7.00;60.83
61136;BME280;47021;51.340;12.432;2023-01-25T14:16:32;101470.50;;;6.90;60.89
61136;BME280;47021;51.340;12.432;2023-01-25T14:19:08;101467.00;;;6.72;61.27
61136;BME280;47021;51.340;12.432;2023-01-25T14:21:43;101473.31;;;6.85;61.25
61136;BME280;47021;51.340;12.432;2023-01-25T14:24:09;101461.81;;;6.72;61.28
61136;BME280;47021;51.340;12.432;2023-01-25T14:26:35;101458.53;;;6.69;61.96
61136;BME280;47021;51.340;12.432;2023-01-25T14:29:19;101460.72;;;6.78;61.91
61136;BME280;47021;51.340;12.432;2023-01-25T14:31:46;101457.25;;;6.59;62.51
61136;BME280;47021;51.340;12.432;2023-01-25T14:34:21;101457.00;;;6.46;62.51
61136;BME280;47021;51.340;12.432;2023-01-25T14:36:51;101454.38;;;6.65;62.41
61136;BME280;47021;51.340;12.432;2023-01-25T14:39:34;101454.47;;;6.63;61.84
61136;BME280;47021;51.340;12.432;2023-01-25T14:42:00;101449.34;;;6.80;62.12
61136;BME280;47021;51.340;12.432;2023-01-25T14:44:26;101444.75;;;6.85;61.31
61136;BME280;47021;51.340;12.432;2023-01-25T14:49:37;101450.75;;;6.87;61.78
61136;BME280;47021;51.340;12.432;2023-01-25T14:52:04;101438.09;;;6.98;61.15
61136;BME280;47021;51.340;12.432;2023-01-25T14:54:33;101432.28;;;6.93;61.13
61136;BME280;47021;51.340;12.432;2023-01-25T14:57:05;101429.59;;;6.95;61.41
61136;BME280;47021;51.340;12.432;2023-01-25T15:01:59;101417.06;;;6.49;62.48
61136;BME280;47021;51.340;12.432;2023-01-25T15:04:32;101418.13;;;6.45;62.50
61136;BME280;47021;51.340;12.432;2023-01-25T15:06:58;101407.75;;;6.45;62.29
61136;BME280;47021;51.340;12.432;2023-01-25T15:09:34;101411.31;;;6.61;62.18
61136;BME280;47021;51.340;12.432;2023-01-25T15:12:01;101407.97;;;6.59;62.25
61136;BME280;47021;51.340;12.432;2023-01-25T15:14:29;101409.22;;;6.31;62.76
61136;BME280;47021;51.340;12.432;2023-01-25T15:17:00;101406.84;;;6.27;63.01
61136;BME280;47021;51.340;12.432;2023-01-25T15:21:53;101406.28;;;6.58;62.23
61136;BME280;47021;51.340;12.432;2023-01-25T15:24:32;101400.94;;;6.61;61.64
61136;BME280;47021;51.340;12.432;2023-01-25T15:27:08;101400.25;;;6.57;62.06
61136;BME280;47021;51.340;12.432;2023-01-25T15:29:36;101410.78;;;6.54;61.49
61136;BME280;47021;51.340;12.432;2023-01-25T15:32:02;101396.81;;;6.38;61.65
61136;BME280;47021;51.340;12.432;2023-01-25T15:34:29;101395.72;;;6.23;62.19
61136;BME280;47021;51.340;12.432;2023-01-25T15:36:57;101388.69;;;6.46;62.13
61136;BME280;47021;51.340;12.432;2023-01-25T15:39:22;101380.81;;;6.66;61.52
61136;BME280;47021;51.340;12.432;2023-01-25T15:41:48;101377.00;;;6.37;61.66
61136;BME280;47021;51.340;12.432;2023-01-25T15:44:25;101384.78;;;6.37;62.26
61136;BME280;47021;51.340;12.432;2023-01-25T15:46:51;101378.19;;;6.30;62.72
61136;BME280;47021;51.340;12.432;2023-01-25T15:49:27;101366.25;;;6.07;64.27
61136;BME280;47021;51.340;12.432;2023-01-25T15:51:53;101375.78;;;6.25;63.62
61136;BME280;47021;51.340;12.432;2023-01-25T15:54:19;101377.00;;;6.37;63.19
61136;BME280;47021;51.340;12.432;2023-01-25T15:56:57;101373.38;;;6.39;62.50
61136;BME280;47021;51.340;12.432;2023-01-25T15:59:24;101363.00;;;6.39;62.34
61136;BME280;47021;51.340;12.432;2023-01-25T16:01:49;101358.75;;;6.57;61.81
61136;BME280;47021;51.340;12.432;2023-01-25T16:04:14;101355.97;;;6.60;61.80
61136;BME280;47021;51.340;12.432;2023-01-25T16:11:38;101357.34;;;6.31;62.29
61136;BME280;47021;51.340;12.432;2023-01-25T16:14:09;101348.78;;;6.48;62.05
61136;BME280;47021;51.340;12.432;2023-01-25T16:16:36;101349.47;;;6.52;61.84